Astatula, Florida
Current Conditions -  °F | °C
As of 10:53 AM on Wednesday 28 Jan 2015 (Local Time) from KLEE Reporting Station
Clear Clear  
Wind Chill: 10°   Ceiling: Unl
Heat Index: 10°   Visibility: 10mi
Dew Point:   Wind: 13mph
Humidity: 54%   Direction: 330°NNW
Pressure: 30.26"   Gusts: 20mph
Location:  28.71°N, 81.73°W
Report Text: KLEE 281553Z 33011G17KT 10SM CLR 10/01 A3026 RMK AO2 SLP247 T01000011
Loading
Personal Weather Stations






























Interactive Weather Map New forecast layout! Learn more

10-Day Weather Forecast

Advertisements
Track Severe Weather on mobile